Time;durP1;ratioP1;P1;durP2;ratioP2;P2;SDS_P1;SDS_P2;PMS_P1;PMS_P2;Temp;Humidity;BMP_temperature;BMP_pressure;BME280_temperature;BME280_humidity;BME280_pressure;Samples;Min_cycle;Max_cycle;Signal;HPM_P1;HPM_P2
2023/03/23 00:03:03;;;;;;;22.67;11.65;;;;;;;6.99;84.48;100001.97;10380145;28;20060;-82
2023/03/23 00:08:04;;;;;;;30.63;11.68;;;;;;;8.04;84.63;100194.03;10378861;28;20053;-82
2023/03/23 00:13:05;;;;;;;30.42;12.98;;;;;;;8.52;84.95;100265.97;10380205;28;20049;-82
2023/03/23 00:18:05;;;;;;;26.13;11.85;;;;;;;7.71;84.64;100125.03;10379433;28;20472;-82
2023/03/23 00:23:07;;;;;;;29.83;12.52;;;;;;;8.26;84.96;100228.91;10379257;28;20044;-82
2023/03/23 00:28:08;;;;;;;23.13;11.77;;;;;;;6.63;85.11;99981.69;10379412;28;20041;-82
2023/03/23 00:33:12;;;;;;;26.73;12.35;;;;;;;8.30;85.48;100281.38;10378821;28;20057;-82
2023/03/23 00:38:13;;;;;;;22.77;13.13;;;;;;;7.81;85.60;100200.78;10378750;28;20048;-82
2023/03/23 00:43:16;;;;;;;25.50;13.63;;;;;;;7.17;85.46;100119.00;10378389;28;20041;-82
2023/03/23 00:48:16;;;;;;;25.42;13.13;;;;;;;6.59;85.67;100032.31;10377439;28;20409;-82
2023/03/23 00:53:18;;;;;;;29.67;12.98;;;;;;;8.37;85.92;100331.88;10378012;28;20132;-82
2023/03/23 00:58:19;;;;;;;32.95;13.35;;;;;;;7.23;85.65;100123.69;10377238;28;20107;-83
2023/03/23 01:03:20;;;;;;;33.22;14.20;;;;;;;7.61;85.59;100161.31;10377691;28;20042;-82
2023/03/23 01:08:22;;;;;;;33.67;14.40;;;;;;;7.82;85.66;100197.19;10386399;28;20053;-83
2023/03/23 01:13:22;;;;;;;39.90;14.57;;;;;;;8.51;86.00;100312.81;10377318;28;20053;-82
2023/03/23 01:18:23;;;;;;;32.83;14.95;;;;;;;7.87;86.16;100227.47;10377130;28;20042;-82
2023/03/23 01:23:24;;;;;;;35.72;15.73;;;;;;;8.07;86.18;100243.97;10376968;28;20038;-83
2023/03/23 01:28:25;;;;;;;28.90;13.93;;;;;;;7.44;86.04;100154.25;10375438;28;20049;-83
2023/03/23 01:33:25;;;;;;;29.33;12.63;;;;;;;7.25;86.12;100129.66;10376790;28;20034;-83
2023/03/23 01:38:26;;;;;;;31.40;13.02;;;;;;;8.72;85.99;100361.94;10375578;28;20042;-84
2023/03/23 01:43:27;;;;;;;27.40;13.02;;;;;;;7.96;86.11;100223.91;10376022;28;20046;-83
2023/03/23 01:48:35;;;;;;;30.88;15.55;;;;;;;7.13;86.30;100090.41;10375199;28;20505;-83
2023/03/23 01:53:44;;;;;;;35.95;16.15;;;;;;;8.71;86.86;100333.81;10374259;28;20038;-84
2023/03/23 01:58:46;;;;;;;61.40;30.52;;;;;;;8.67;85.98;100312.94;10375132;28;20461;-84
2023/03/23 02:03:50;;;;;;;34.67;14.35;;;;;;;8.69;85.72;100320.72;10374596;28;20438;-82
2023/03/23 02:08:52;;;;;;;27.10;12.55;;;;;;;7.85;85.28;100168.63;10371928;28;20851;-85
2023/03/23 02:13:53;;;;;;;29.38;12.13;;;;;;;8.12;84.91;100187.97;10372465;28;20050;-84
2023/03/23 02:19:17;;;;;;;30.52;13.18;;;;;;;8.06;85.58;100189.41;10371488;28;20132;-85
2023/03/23 02:24:48;;;;;;;25.55;12.35;;;;;;;9.29;85.65;100355.13;10372034;28;20514;-84
2023/03/23 02:30:08;;;;;;;31.00;13.18;;;;;;;9.36;85.95;100361.47;10372219;28;20041;-83
2023/03/23 02:35:21;;;;;;;101.10;47.45;;;;;;;9.36;86.58;100364.13;10374144;28;20400;-83
2023/03/23 02:40:29;;;;;;;36.83;17.60;;;;;;;8.05;85.74;100158.66;10373447;28;20137;-83
2023/03/23 02:45:33;;;;;;;26.13;13.88;;;;;;;9.24;85.72;100373.31;10374448;28;20045;-84
2023/03/23 02:50:36;;;;;;;26.02;11.88;;;;;;;8.81;85.94;100306.19;10373544;28;20625;-83
2023/03/23 02:55:41;;;;;;;32.72;11.90;;;;;;;8.51;86.31;100273.09;10372665;28;20483;-83
2023/03/23 03:00:44;;;;;;;35.25;13.15;;;;;;;7.86;86.21;100174.72;10374438;28;20073;-82
2023/03/23 03:05:50;;;;;;;26.80;12.30;;;;;;;7.99;86.71;100185.75;10372363;28;20483;-83
2023/03/23 03:11:15;;;;;;;22.83;11.00;;;;;;;9.19;87.57;100375.63;10369429;28;20054;-83
2023/03/23 03:16:45;;;;;;;23.75;11.60;;;;;;;9.24;87.37;100380.44;10373013;28;20124;-83
2023/03/23 03:21:49;;;;;;;28.95;11.25;;;;;;;8.94;85.86;100334.91;10346231;28;20053;-83
2023/03/23 03:26:57;;;;;;;30.05;10.43;;;;;;;8.64;86.72;100280.63;10370905;28;20070;-82
2023/03/23 03:32:02;;;;;;;28.48;14.25;;;;;;;8.36;86.40;100234.94;10387937;28;20502;-80
2023/03/23 03:37:05;;;;;;;;;;;;;;;9.52;86.82;100394.34;10383067;28;20049;-81
2023/03/23 03:42:07;;;;;;;22.67;11.23;;;;;;;8.94;85.73;100326.97;10373145;28;20440;-84
2023/03/23 03:47:10;;;;;;;22.27;10.27;;;;;;;9.20;85.81;100355.25;10372704;28;20485;-84
2023/03/23 03:52:11;;;;;;;26.10;11.32;;;;;;;9.56;86.04;100411.56;10390482;28;20057;-81
2023/03/23 03:57:12;;;;;;;27.38;10.35;;;;;;;9.59;85.91;100408.59;10381051;28;20139;-82
2023/03/23 04:02:16;;;;;;;23.55;10.43;;;;;;;9.25;86.05;100345.00;10401293;28;20048;-81
2023/03/23 04:07:17;;;;;;;22.10;11.10;;;;;;;9.05;85.53;100308.16;10396868;28;20540;-80
2023/03/23 04:12:18;;;;;;;31.70;11.88;;;;;;;9.18;85.74;100310.34;10386903;28;20062;-82
2023/03/23 04:17:19;;;;;;;24.58;11.48;;;;;;;9.20;85.66;100300.41;10382672;28;20049;-83
2023/03/23 04:22:24;;;;;;;29.40;11.90;;;;;;;9.47;85.48;100325.84;10389597;28;20041;-80
2023/03/23 04:27:27;;;;;;;25.80;11.65;;;;;;;9.13;85.62;100236.63;10376819;28;20128;-81
2023/03/23 04:32:30;;;;;;;22.67;10.95;;;;;;;9.78;84.61;100312.84;10353051;28;20087;-81
2023/03/23 04:37:31;;;;;;;21.73;10.13;;;;;;;10.65;84.14;100421.25;10365429;28;20037;-81
2023/03/23 04:42:31;;;;;;;22.00;11.63;;;;;;;10.02;83.78;100271.38;10375164;28;20045;-80
2023/03/23 04:47:39;;;;;;;25.77;12.63;;;;;;;11.00;83.92;100366.09;10378632;28;20096;-81
2023/03/23 04:52:44;;;;;;;28.50;13.45;;;;;;;10.97;82.77;100314.91;10384731;28;20046;-81
2023/03/23 04:57:47;;;;;;;23.85;12.85;;;;;;;11.40;82.55;100331.38;10370512;28;20037;-85
2023/03/23 05:02:51;;;;;;;22.35;12.48;;;;;;;10.18;81.86;100082.91;10377319;28;20042;-81
2023/03/23 05:07:52;;;;;;;20.30;12.32;;;;;;;12.12;81.91;100362.25;10351836;28;20098;-81
2023/03/23 05:12:54;;;;;;;24.17;14.52;;;;;;;12.65;81.43;100397.78;10392572;28;20069;-79
2023/03/23 05:17:55;;;;;;;33.63;18.05;;;;;;;12.84;80.89;100403.63;10395056;28;20509;-77
2023/03/23 05:22:57;;;;;;;24.63;12.60;;;;;;;12.43;80.11;100324.03;10399171;28;20046;-76
2023/03/23 05:27:58;;;;;;;29.95;11.98;;;;;;;13.08;80.20;100410.56;10376352;28;20448;-74
2023/03/23 05:32:59;;;;;;;20.58;12.90;;;;;;;13.29;79.49;100408.00;10375707;28;20128;-76
2023/03/23 05:38:01;;;;;;;23.67;12.30;;;;;;;13.19;78.80;100365.59;10375933;28;20128;-76
2023/03/23 05:43:02;;;;;;;19.90;12.85;;;;;;;13.56;78.65;100403.84;10370818;28;20084;-77
2023/03/23 05:48:03;;;;;;;21.38;12.93;;;;;;;13.06;78.66;100322.72;10375600;28;20092;-76
2023/03/23 05:53:04;;;;;;;25.90;12.60;;;;;;;13.70;78.28;100421.69;10375462;28;20041;-76
2023/03/23 05:58:04;;;;;;;28.33;12.57;;;;;;;13.33;77.62;100374.59;10374600;28;20470;-76
2023/03/23 06:03:05;;;;;;;18.38;11.88;;;;;;;13.15;77.81;100337.59;10374943;28;20038;-76
2023/03/23 06:08:07;;;;;;;20.42;12.23;;;;;;;13.32;77.71;100374.81;10374961;28;20092;-76
2023/03/23 06:13:08;;;;;;;21.80;11.75;;;;;;;13.47;77.70;100402.31;10374080;28;20057;-76
2023/03/23 06:18:08;;;;;;;21.33;11.52;;;;;;;13.05;77.12;100315.75;10389848;28;20128;-76
2023/03/23 06:23:09;;;;;;;17.38;10.75;;;;;;;13.14;77.25;100335.97;10373698;28;20055;-76
2023/03/23 06:28:10;;;;;;;18.60;11.60;;;;;;;13.03;76.92;100318.56;10374454;28;20042;-76
2023/03/23 06:33:11;;;;;;;18.55;10.48;;;;;;;13.62;76.36;100402.28;10373380;28;20038;-76
2023/03/23 06:38:12;;;;;;;16.08;10.40;;;;;;;13.37;76.21;100340.38;10373700;28;20034;-76
2023/03/23 06:43:13;;;;;;;19.27;10.23;;;;;;;13.05;76.17;100266.91;10372333;28;20046;-76
2023/03/23 06:48:14;;;;;;;20.15;11.18;;;;;;;14.25;75.73;100429.28;10373773;28;20038;-76
2023/03/23 06:53:16;;;;;;;26.27;10.43;;;;;;;13.71;74.86;100326.41;10373157;28;20148;-76
2023/03/23 06:58:17;;;;;;;16.63;9.48;;;;;;;14.41;74.42;100417.53;10372566;28;20037;-76
2023/03/23 07:03:17;;;;;;;18.13;9.48;;;;;;;14.71;73.84;100431.59;10374195;28;20042;-76
2023/03/23 07:08:18;;;;;;;15.98;10.15;;;;;;;14.82;73.36;100399.00;10372705;28;20050;-76
2023/03/23 07:13:20;;;;;;;19.27;8.65;;;;;;;14.07;72.13;100245.41;10373840;28;20064;-76
2023/03/23 07:18:21;;;;;;;18.00;8.52;;;;;;;15.19;71.62;100395.09;10372671;28;20575;-76
2023/03/23 07:23:22;;;;;;;18.42;8.20;;;;;;;15.31;70.93;100403.41;10372576;28;20464;-76
2023/03/23 07:28:23;;;;;;;24.58;7.55;;;;;;;15.49;69.43;100419.78;10371672;28;20121;-76
2023/03/23 07:33:23;;;;;;;16.58;7.70;;;;;;;15.26;68.30;100395.16;10372349;28;20034;-76
2023/03/23 07:38:27;;;;;;;23.38;8.13;;;;;;;15.43;68.83;100404.50;10372239;28;20038;-76
2023/03/23 07:43:28;;;;;;;15.70;7.23;;;;;;;15.60;67.90;100414.91;10372244;28;20041;-76
2023/03/23 07:48:29;;;;;;;20.23;7.93;;;;;;;15.47;67.76;100376.34;10371898;28;20413;-76
2023/03/23 07:53:29;;;;;;;23.88;6.30;;;;;;;15.38;66.42;100348.09;10372728;28;20061;-76
2023/03/23 07:58:30;;;;;;;24.58;5.95;;;;;;;14.72;65.43;100235.41;10379929;28;20065;-76
2023/03/23 08:03:31;;;;;;;19.50;6.00;;;;;;;15.61;64.04;100360.31;10379835;28;20049;-75
2023/03/23 08:08:32;;;;;;;17.60;5.60;;;;;;;16.01;63.24;100347.06;10378630;28;20052;-76
2023/03/23 08:13:35;;;;;;;21.67;5.22;;;;;;;16.44;61.91;100361.75;10379042;28;20041;-76
2023/03/23 08:18:37;;;;;;;19.75;5.22;;;;;;;16.24;60.73;100299.25;10379534;28;20084;-75
2023/03/23 08:23:38;;;;;;;24.38;5.15;;;;;;;16.79;59.82;100369.59;10378371;28;20038;-75
2023/03/23 08:28:39;;;;;;;27.45;4.72;;;;;;;16.43;59.62;100301.13;10378237;28;20041;-76
2023/03/23 08:33:41;;;;;;;22.35;4.70;;;;;;;16.07;58.57;100188.16;10378270;28;20038;-76
2023/03/23 08:38:43;;;;;;;21.75;5.20;;;;;;;16.61;57.36;100233.44;10378372;28;20034;-76
2023/03/23 08:43:44;;;;;;;17.60;4.90;;;;;;;17.54;56.64;100331.59;10378409;28;20042;-76
2023/03/23 08:48:46;;;;;;;18.50;5.35;;;;;;;17.01;56.00;100238.69;10378136;28;20041;-75
2023/03/23 08:53:47;;;;;;;25.25;5.00;;;;;;;16.92;55.83;100153.28;10377947;28;20498;-76
2023/03/23 08:58:48;;;;;;;17.40;5.35;;;;;;;18.09;54.36;100313.09;10377831;28;20038;-76
2023/03/23 09:03:50;;;;;;;26.02;5.85;;;;;;;17.50;54.00;100241.75;10378023;28;20132;-75
2023/03/23 09:08:51;;;;;;;18.05;6.22;;;;;;;17.67;55.00;100275.13;10375600;28;20449;-74
2023/03/23 09:13:52;;;;;;;18.15;5.68;;;;;;;17.11;54.88;100173.81;10377186;28;20476;-74
2023/03/23 09:18:52;;;;;;;23.33;4.75;;;;;;;18.20;54.36;100274.75;10377107;28;20053;-76
2023/03/23 09:23:56;;;;;;;23.85;5.00;;;;;;;18.39;53.84;100291.75;10376458;28;20540;-74
2023/03/23 09:28:58;;;;;;;22.00;5.35;;;;;;;17.77;53.44;100168.03;10375930;28;20046;-75
2023/03/23 09:34:00;;;;;;;21.45;4.43;;;;;;;18.23;53.27;100234.00;10376346;28;20161;-74
2023/03/23 09:39:01;;;;;;;16.50;4.90;;;;;;;17.43;53.16;100109.38;10376193;28;20042;-75
2023/03/23 09:44:06;;;;;;;16.50;4.50;;;;;;;18.47;52.97;100280.72;10375525;28;20076;-76
2023/03/23 09:49:13;;;;;;;14.13;4.55;;;;;;;18.56;51.03;100275.88;10376021;28;20100;-74
2023/03/23 09:54:36;;;;;;;14.73;3.53;;;;;;;18.86;51.66;100280.59;10374961;28;20038;-75
2023/03/23 09:59:43;;;;;;;17.80;4.07;;;;;;;18.70;51.34;100263.94;10375783;28;20042;-75
2023/03/23 10:04:50;;;;;;;18.25;4.65;;;;;;;18.65;51.48;100271.03;10374992;28;20046;-74
2023/03/23 10:09:54;;;;;;;15.93;4.53;;;;;;;18.38;52.08;100279.38;10374664;28;20080;-75
2023/03/23 10:15:17;;;;;;;15.70;4.53;;;;;;;18.27;52.50;100263.94;10380727;28;20127;-74
2023/03/23 10:20:28;;;;;;;;;;;;;;;18.54;52.84;100269.91;10397720;28;20425;-75
2023/03/23 10:25:34;;;;;;;26.63;4.68;;;;;;;17.98;52.38;100211.69;10397114;28;19948;-75
2023/03/23 10:30:42;;;;;;;18.35;4.88;;;;;;;18.03;52.52;100219.91;10378799;28;20099;-75
2023/03/23 10:36:00;;;;;;;13.10;4.22;;;;;;;18.34;50.76;100259.34;10373635;28;20042;-75
2023/03/23 10:41:09;;;;;;;15.82;4.60;;;;;;;17.79;51.68;100175.88;10373386;28;20104;-75
2023/03/23 10:46:31;;;;;;;14.68;3.90;;;;;;;18.39;52.05;100246.03;10389711;28;20077;-74
2023/03/23 10:51:36;;;;;;;10.80;4.93;;;;;;;18.54;51.87;100244.88;10376073;28;20607;-73
2023/03/23 10:56:44;;;;;;;12.80;3.60;;;;;;;18.18;51.49;100187.31;10331993;28;20041;-73
2023/03/23 11:01:50;;;;;;;10.90;4.03;;;;;;;18.52;51.68;100228.97;10333676;28;20509;-73
2023/03/23 11:06:54;;;;;;;12.35;4.70;;;;;;;18.41;52.42;100237.75;10383358;28;20049;-73
2023/03/23 11:11:56;;;;;;;14.60;4.40;;;;;;;18.16;52.19;100235.94;10374696;28;20096;-74
2023/03/23 11:17:00;;;;;;;18.95;4.00;;;;;;;17.94;51.96;100210.47;10388754;28;20536;-73
2023/03/23 11:22:06;;;;;;;14.70;3.80;;;;;;;18.03;51.94;100218.03;10412374;28;20477;-74
2023/03/23 11:27:09;;;;;;;15.98;4.40;;;;;;;17.91;52.17;100179.47;10413116;28;20405;-73
2023/03/23 11:32:14;;;;;;;21.63;5.40;;;;;;;17.96;51.88;100194.97;10406389;28;20053;-73
2023/03/23 11:37:28;;;;;;;12.07;4.65;;;;;;;17.67;52.28;100135.41;10390429;28;20413;-74
2023/03/23 11:42:31;;;;;;;12.57;3.85;;;;;;;18.09;51.70;100189.44;10371701;28;20046;-74
2023/03/23 11:47:39;;;;;;;12.48;3.70;;;;;;;17.91;51.31;100170.59;10391379;28;20056;-74
2023/03/23 11:52:46;;;;;;;10.02;3.72;;;;;;;17.99;52.13;100191.81;10412677;28;20084;-74
2023/03/23 11:57:48;;;;;;;14.38;3.67;;;;;;;16.91;51.99;100030.91;10397135;28;21597;-74
2023/03/23 12:03:46;;;;;;;15.77;4.15;;;;;;;17.79;51.85;100195.50;10390523;28;20128;-73
2023/03/23 12:09:16;;;;;;;12.68;4.18;;;;;;;17.18;52.74;100123.63;10305425;28;20514;-73
2023/03/23 12:15:03;;;;;;;16.42;4.57;;;;;;;17.49;52.50;100173.78;10367737;28;20049;-76
2023/03/23 12:20:21;;;;;;;16.65;4.47;;;;;;;17.44;52.18;100167.41;10387489;28;20096;-72
2023/03/23 12:25:30;;;;;;;23.70;4.80;;;;;;;17.57;52.99;100186.13;10396369;28;20412;-71
2023/03/23 12:31:03;;;;;;;21.33;4.00;;;;;;;16.94;52.14;100103.75;10398729;28;20052;-72
2023/03/23 12:36:21;;;;;;;20.83;4.32;;;;;;;17.41;51.76;100186.66;10374973;28;20468;-72
2023/03/23 12:41:32;;;;;;;25.33;4.53;;;;;;;17.37;52.15;100172.03;10400138;28;20049;-73
2023/03/23 12:46:50;;;;;;;25.25;5.05;;;;;;;17.42;52.19;100181.06;10396430;28;20041;-73
2023/03/23 12:52:30;;;;;;;15.88;3.97;;;;;;;17.36;52.32;100176.56;10397896;28;20054;-73
2023/03/23 12:57:41;;;;;;;19.73;4.30;;;;;;;17.25;52.91;100161.97;10373309;28;20090;-74
2023/03/23 13:02:50;;;;;;;20.15;4.25;;;;;;;17.06;52.63;100133.41;10377134;28;20099;-73
2023/03/23 13:08:10;;;;;;;20.27;4.15;;;;;;;16.80;53.07;100084.19;10390167;28;20056;-72
2023/03/23 13:13:17;;;;;;;21.98;4.45;;;;;;;16.78;52.71;100083.63;10395031;28;20494;-73
2023/03/23 13:18:31;;;;;;;19.83;4.13;;;;;;;17.39;52.40;100175.31;10396946;28;20050;-73
2023/03/23 13:23:37;;;;;;;10.68;3.80;;;;;;;17.19;52.67;100135.97;10394659;28;20030;-73
2023/03/23 13:29:27;;;;;;;14.45;4.65;;;;;;;17.53;52.93;100177.69;10390434;28;20053;-74
2023/03/23 13:34:32;;;;;;;16.50;4.93;;;;;;;16.93;53.19;100112.00;10369060;28;20477;-73
2023/03/23 13:39:58;;;;;;;17.90;4.25;;;;;;;17.23;53.33;100182.84;10401504;28;20056;-73
2023/03/23 13:45:22;;;;;;;32.38;4.60;;;;;;;17.16;53.31;100167.81;10372103;28;20080;-73
2023/03/23 13:50:23;;;;;;;14.50;4.22;;;;;;;17.18;53.41;100173.78;10385589;28;20042;-73
2023/03/23 13:55:35;;;;;;;17.08;5.10;;;;;;;17.23;53.23;100188.22;10399444;28;20124;-72
2023/03/23 14:00:46;;;;;;;16.67;4.20;;;;;;;17.16;54.06;100182.03;10391021;28;20041;-72
2023/03/23 14:05:59;;;;;;;16.52;4.43;;;;;;;17.14;53.64;100197.56;10384959;28;20053;-73
2023/03/23 14:11:09;;;;;;;16.40;3.97;;;;;;;16.81;54.38;100142.19;10413908;28;20106;-72
2023/03/23 14:16:26;;;;;;;27.35;8.10;;;;;;;16.60;54.85;100119.16;10415772;28;20440;-72
2023/03/23 14:21:40;;;;;;;17.45;4.63;;;;;;;16.00;54.93;100034.63;10414905;28;20045;-72
2023/03/23 14:26:42;;;;;;;17.58;5.03;;;;;;;16.27;55.26;100080.91;10415578;28;20083;-72
2023/03/23 14:31:44;;;;;;;19.25;4.90;;;;;;;16.58;55.58;100152.56;10414374;28;20402;-72
2023/03/23 14:36:45;;;;;;;24.65;4.28;;;;;;;16.23;56.16;100110.00;10414891;28;20041;-73
2023/03/23 14:41:47;;;;;;;20.13;3.92;;;;;;;16.61;56.40;100170.94;10414982;28;20127;-72
2023/03/23 14:46:49;;;;;;;25.33;5.30;;;;;;;16.63;56.51;100179.56;10414406;28;20045;-72
2023/03/23 14:51:52;;;;;;;20.13;6.95;;;;;;;16.43;56.95;100172.41;10413598;28;20041;-72
2023/03/23 14:56:54;;;;;;;43.45;18.88;;;;;;;16.49;56.93;100186.84;10413783;28;20045;-72
2023/03/23 15:01:55;;;;;;;42.17;20.42;;;;;;;15.53;57.72;100043.56;10413950;28;20045;-73
2023/03/23 15:07:01;;;;;;;50.95;17.30;;;;;;;16.08;57.92;100150.44;10413524;28;20045;-72
2023/03/23 15:12:04;;;;;;;53.33;17.23;;;;;;;16.13;58.18;100168.56;10414300;28;20057;-72
2023/03/23 15:17:05;;;;;;;75.30;17.35;;;;;;;15.80;58.09;100128.44;10414101;28;20378;-72
2023/03/23 15:22:29;;;;;;;43.85;15.60;;;;;;;16.25;58.36;100207.09;10413527;28;20038;-72
2023/03/23 15:27:33;;;;;;;88.13;19.42;;;;;;;16.19;58.36;100202.56;10412129;28;20049;-72
2023/03/23 15:32:42;;;;;;;90.75;25.08;;;;;;;15.81;58.63;100149.63;10412714;28;20049;-72
2023/03/23 15:37:46;;;;;;;75.13;29.38;;;;;;;16.03;58.72;100193.09;10413149;28;20038;-73
2023/03/23 15:42:48;;;;;;;59.42;23.58;;;;;;;16.00;59.05;100203.41;10413062;28;20402;-72
2023/03/23 15:47:49;;;;;;;63.13;29.98;;;;;;;15.90;59.07;100203.81;10412844;28;20123;-72
2023/03/23 15:52:51;;;;;;;66.10;37.78;;;;;;;15.81;59.49;100197.03;10411059;28;20037;-72
2023/03/23 15:57:54;;;;;;;70.80;33.60;;;;;;;15.20;59.35;100109.63;10412252;28;20076;-72
2023/03/23 16:03:05;;;;;;;67.93;28.85;;;;;;;15.22;59.65;100119.09;10412979;28;20060;-72
2023/03/23 16:08:10;;;;;;;60.40;30.98;;;;;;;15.75;59.82;100231.63;10376689;28;20129;-72
2023/03/23 16:13:11;;;;;;;54.13;29.50;;;;;;;15.53;59.96;100193.47;10371696;28;20144;-73
2023/03/23 16:18:20;;;;;;;70.60;37.08;;;;;;;15.68;60.51;100244.19;10405515;28;20107;-73
2023/03/23 16:23:21;;;;;;;74.57;42.25;;;;;;;15.50;60.33;100215.31;10390720;28;20049;-72
2023/03/23 16:28:22;;;;;;;91.53;54.58;;;;;;;14.70;60.51;100103.75;10378817;28;20038;-71
2023/03/23 16:33:22;;;;;;;87.00;46.53;;;;;;;15.43;60.71;100230.50;10389849;28;20041;-72
2023/03/23 16:38:24;;;;;;;64.25;34.22;;;;;;;15.10;61.08;100195.63;10377807;28;20045;-72
2023/03/23 16:43:25;;;;;;;49.28;23.92;;;;;;;15.37;61.08;100249.22;10376631;28;20406;-73
2023/03/23 16:48:25;;;;;;;33.70;16.17;;;;;;;15.30;61.48;100249.22;10377702;28;20041;-73
2023/03/23 16:53:26;;;;;;;26.70;9.80;;;;;;;15.20;61.77;100252.28;10378435;28;20065;-74
2023/03/23 16:58:27;;;;;;;27.17;8.25;;;;;;;14.56;61.88;100162.50;10392601;28;20041;-73
2023/03/23 17:03:28;;;;;;;24.13;7.50;;;;;;;14.87;62.03;100224.53;10377495;28;20092;-74
2023/03/23 17:08:29;;;;;;;25.48;6.32;;;;;;;14.22;62.30;100130.44;10386617;28;20078;-75
2023/03/23 17:13:30;;;;;;;16.10;5.70;;;;;;;15.00;62.66;100273.59;10376350;28;20049;-74
2023/03/23 17:18:31;;;;;;;22.15;5.28;;;;;;;13.81;62.46;100101.81;10428484;28;20045;-74
2023/03/23 17:23:32;;;;;;;24.90;5.25;;;;;;;14.28;62.33;100177.75;10390458;28;20453;-74
2023/03/23 17:28:32;;;;;;;16.35;4.55;;;;;;;14.23;62.70;100164.97;10391148;28;20049;-74
2023/03/23 17:33:33;;;;;;;23.95;4.35;;;;;;;14.41;62.83;100201.88;10376041;28;20049;-74
2023/03/23 17:38:34;;;;;;;17.60;4.85;;;;;;;14.21;63.35;100185.72;10379735;28;20103;-74
2023/03/23 17:43:38;;;;;;;12.32;3.22;;;;;;;14.57;63.52;100260.41;10377113;28;20037;-74
2023/03/23 17:48:39;;;;;;;26.77;4.90;;;;;;;13.85;63.67;100135.97;10375655;28;20058;-74
2023/03/23 17:53:39;;;;;;;24.70;4.72;;;;;;;14.08;63.83;100178.44;10375636;28;20037;-74
2023/03/23 17:58:40;;;;;;;16.10;4.15;;;;;;;14.41;64.13;100236.59;10375206;28;20033;-74
2023/03/23 18:03:41;;;;;;;15.55;3.90;;;;;;;14.52;64.57;100262.00;10375972;28;20041;-73
2023/03/23 18:08:42;;;;;;;20.67;4.60;;;;;;;14.46;64.73;100265.44;10374580;28;20049;-74
2023/03/23 18:13:42;;;;;;;17.33;4.50;;;;;;;14.38;65.27;100258.38;10386059;28;20561;-74
2023/03/23 18:18:45;;;;;;;17.20;4.35;;;;;;;14.31;65.26;100249.50;10374339;28;20041;-74
2023/03/23 18:23:46;;;;;;;18.40;4.63;;;;;;;13.95;65.42;100202.38;10375290;28;20517;-73
2023/03/23 18:28:48;;;;;;;19.20;5.30;;;;;;;14.23;65.35;100257.66;10373682;28;20054;-72
2023/03/23 18:33:52;;;;;;;21.58;4.97;;;;;;;14.20;65.25;100245.50;10374197;28;20037;-73
2023/03/23 18:38:55;;;;;;;24.80;5.13;;;;;;;14.17;64.99;100248.56;10373381;28;20092;-73
2023/03/23 18:43:56;;;;;;;30.50;4.28;;;;;;;13.77;65.35;100188.69;10374356;28;20049;-73
2023/03/23 18:48:57;;;;;;;17.33;4.47;;;;;;;14.07;65.45;100240.91;10373556;28;20052;-73
2023/03/23 18:53:57;;;;;;;20.60;5.35;;;;;;;13.95;65.81;100234.44;10372853;28;20040;-73
2023/03/23 18:58:58;;;;;;;26.77;5.63;;;;;;;13.80;65.63;100221.16;10371533;28;20049;-73
2023/03/23 19:03:59;;;;;;;18.45;5.07;;;;;;;13.89;65.63;100248.53;10372572;28;20085;-74
2023/03/23 19:09:00;;;;;;;16.90;4.25;;;;;;;13.28;66.46;100154.75;10372318;28;20064;-73
2023/03/23 19:14:01;;;;;;;28.10;5.55;;;;;;;13.56;66.42;100219.69;10372907;28;20046;-73
2023/03/23 19:19:04;;;;;;;21.40;5.13;;;;;;;12.91;66.79;100144.09;10373215;28;20053;-74
2023/03/23 19:24:07;;;;;;;17.25;5.10;;;;;;;13.00;67.32;100190.94;10386976;28;20080;-73
2023/03/23 19:29:12;;;;;;;20.75;6.38;;;;;;;12.95;67.85;100219.19;10372465;28;20054;-73
2023/03/23 19:34:14;;;;;;;24.08;6.10;;;;;;;12.85;68.44;100230.13;10372337;28;20068;-73
2023/03/23 19:39:15;;;;;;;29.73;8.10;;;;;;;12.70;68.69;100232.81;10382818;28;20038;-74
2023/03/23 19:44:16;;;;;;;27.90;7.28;;;;;;;12.05;69.18;100140.31;10371850;28;20049;-74
2023/03/23 19:49:16;;;;;;;21.70;7.32;;;;;;;11.85;69.31;100132.03;10382680;28;20104;-72
2023/03/23 19:54:17;;;;;;;30.20;8.20;;;;;;;12.22;69.79;100224.34;10379492;28;20378;-72
2023/03/23 19:59:18;;;;;;;22.80;8.32;;;;;;;12.00;70.27;100198.59;10380587;28;20048;-72
2023/03/23 20:04:20;;;;;;;22.67;8.23;;;;;;;11.87;70.62;100216.00;10380015;28;20042;-72
2023/03/23 20:09:21;;;;;;;27.48;9.02;;;;;;;11.23;70.63;100130.34;10379839;28;20089;-72
2023/03/23 20:14:21;;;;;;;29.73;9.18;;;;;;;11.01;71.05;100117.88;10379416;28;20069;-72
2023/03/23 20:19:22;;;;;;;30.23;7.60;;;;;;;11.35;71.22;100178.63;10378810;28;20081;-72
2023/03/23 20:24:23;;;;;;;17.67;6.63;;;;;;;11.39;71.82;100206.53;10379226;28;20069;-72
2023/03/23 20:29:23;;;;;;;24.55;6.18;;;;;;;10.90;71.61;100143.03;10378224;28;20092;-72
2023/03/23 20:34:30;;;;;;;25.77;5.80;;;;;;;10.89;72.44;100155.50;10378704;28;20045;-72
2023/03/23 20:39:32;;;;;;;22.83;6.43;;;;;;;11.23;72.37;100210.13;10394337;28;20037;-72
2023/03/23 20:44:34;;;;;;;33.40;7.70;;;;;;;10.26;71.82;100051.06;10377871;28;20069;-72
2023/03/23 20:49:37;;;;;;;15.85;5.85;;;;;;;11.22;72.07;100219.13;10377650;28;20048;-72
2023/03/23 20:54:39;;;;;;;30.48;6.93;;;;;;;10.62;72.50;100134.69;10377589;28;20053;-72
2023/03/23 20:59:40;;;;;;;20.40;6.88;;;;;;;10.88;72.94;100204.31;10377645;28;20451;-72
2023/03/23 21:04:41;;;;;;;24.45;6.90;;;;;;;10.26;73.03;100120.09;10376379;28;20042;-73
2023/03/23 21:09:42;;;;;;;30.63;6.43;;;;;;;10.63;73.52;100197.47;10377561;28;20065;-73
2023/03/23 21:14:43;;;;;;;25.38;6.80;;;;;;;10.15;73.60;100111.63;10377182;28;20133;-73
2023/03/23 21:19:44;;;;;;;26.20;7.88;;;;;;;10.44;73.24;100165.00;10376500;28;20046;-74
2023/03/23 21:24:45;;;;;;;29.08;10.07;;;;;;;10.65;73.64;100219.34;10377269;28;20124;-73
2023/03/23 21:29:46;;;;;;;24.25;8.32;;;;;;;10.56;73.91;100213.28;10376095;28;20489;-73
2023/03/23 21:34:46;;;;;;;40.58;10.45;;;;;;;10.18;74.42;100186.44;10375802;28;20042;-73
2023/03/23 21:39:47;;;;;;;27.50;8.40;;;;;;;9.75;75.58;100166.41;10375709;28;20417;-73
2023/03/23 21:44:48;;;;;;;27.77;9.63;;;;;;;9.71;76.58;100218.16;10376864;28;20103;-73
2023/03/23 21:49:49;;;;;;;43.88;21.10;;;;;;;9.27;76.69;100168.91;10390534;28;20140;-73
2023/03/23 21:54:52;;;;;;;32.97;13.70;;;;;;;8.97;77.16;100125.28;10376265;28;20120;-73
2023/03/23 21:59:53;;;;;;;38.40;12.10;;;;;;;9.36;76.92;100180.34;10376145;28;20049;-73
2023/03/23 22:04:55;;;;;;;37.58;12.32;;;;;;;9.07;77.13;100144.53;10376102;28;20050;-73
2023/03/23 22:09:56;;;;;;;27.58;11.80;;;;;;;9.17;77.29;100175.34;10374757;28;20061;-73
2023/03/23 22:14:57;;;;;;;38.08;11.07;;;;;;;9.03;77.90;100169.69;10374009;28;20041;-73
2023/03/23 22:19:57;;;;;;;31.40;11.15;;;;;;;8.91;78.45;100170.97;10374740;28;20050;-73
2023/03/23 22:24:58;;;;;;;30.00;9.50;;;;;;;8.83;78.79;100173.63;10374101;28;20041;-74
2023/03/23 22:29:59;;;;;;;30.27;9.50;;;;;;;8.59;78.59;100156.66;10381867;28;20056;-73
2023/03/23 22:35:00;;;;;;;44.28;16.40;;;;;;;8.57;78.94;100149.84;10376930;28;20044;-73
2023/03/23 22:40:01;;;;;;;39.53;13.45;;;;;;;8.59;79.09;100174.38;10374227;28;20066;-73
2023/03/23 22:45:02;;;;;;;50.00;13.30;;;;;;;8.40;79.57;100149.75;10373316;28;20520;-74
2023/03/23 22:50:07;;;;;;;54.25;14.80;;;;;;;8.53;80.98;100180.28;10372917;28;20418;-73
2023/03/23 22:55:08;;;;;;;41.05;13.45;;;;;;;8.23;80.54;100150.66;10374007;28;20532;-73
2023/03/23 23:00:13;;;;;;;36.72;12.85;;;;;;;8.54;80.77;100201.31;10373773;28;20046;-73
2023/03/23 23:05:14;;;;;;;;;;;;;;;8.66;81.34;100200.03;10372925;28;20042;-73